Time;durP1;ratioP1;P1;durP2;ratioP2;P2;SDS_P1;SDS_P2;PMS_P1;PMS_P2;Temp;Humidity;BMP_temperature;BMP_pressure;BME280_temperature;BME280_humidity;BME280_pressure;Samples;Min_cycle;Max_cycle;Signal;HPM_P1;HPM_P2
2021/12/29 01:07:53;;;;;;;;;;;;;;;8.22;0.00;97733.81;5009724;28;20509;-64
2021/12/29 01:10:18;;;;;;;;;;;;;;;8.27;0.00;97731.88;5043532;28;19972;-65
2021/12/29 01:12:51;;;;;;;;;;;;;;;8.27;0.00;97731.88;5042210;28;20385;-64
2021/12/29 04:14:13;;;;;;;;;;;;;;;7.96;0.00;97949.38;5038468;28;19928;-64
2021/12/29 04:16:41;;;;;;;;;;;;;;;8.06;0.00;97943.88;5040944;28;19916;-64
2021/12/29 05:36:44;;;;;;;;;;;;;;;8.12;0.00;98015.44;5021584;28;19990;-64
2021/12/29 05:39:09;;;;;;;;;;;;;;;8.07;0.00;98012.19;5046961;28;20625;-65
2021/12/29 17:48:13;;;;;;;;;;;;;;;9.22;28.08;98089.84;5715068;22;19930;-68
2021/12/29 17:50:38;;;;;;;;;;;;;;;9.40;26.84;98101.94;5024431;28;19940;-68
2021/12/29 17:53:05;;;;;;;;;;;;;;;9.19;28.06;98083.09;5017599;28;19921;-68
2021/12/29 17:55:30;;;;;;;;;;;;;;;9.53;24.90;98089.38;5019213;28;19995;-69
2021/12/29 17:57:56;;;;;;;;;;;;;;;9.49;26.11;98077.59;5019327;28;19960;-65
2021/12/29 18:00:21;;;;;;;;;;;;;;;9.46;27.39;98075.13;5021049;28;19970;-66
2021/12/29 18:02:49;;;;;;;;;;;;;;;9.60;27.08;98067.69;5022276;28;19917;-66
2021/12/29 18:05:14;;;;;;;;;;;;;;;9.46;27.96;98072.56;5024950;28;20710;-68
2021/12/29 18:07:40;;;;;;;;;;;;;;;9.64;25.48;98069.19;5013705;28;19921;-66
2021/12/29 18:10:06;;;;;;;;;;;;;;;9.52;26.52;98068.91;5007063;28;19941;-66
2021/12/29 18:12:32;;;;;;;;;;;;;;;9.55;23.73;98063.63;5005995;28;19921;-66
2021/12/29 18:15:01;;;;;;;;;;;;;;;9.53;24.19;98066.25;5019422;28;19936;-66
2021/12/29 18:17:28;;;;;;;;;;;;;;;9.49;22.39;98064.72;5015619;28;19921;-66
2021/12/29 18:19:53;;;;;;;;;;;;;;;9.59;22.39;98073.72;5018644;28;19921;-66
2021/12/29 18:22:24;;;;;;;;;;;;;;;9.68;22.67;98063.94;5016302;28;19924;-66
2021/12/29 18:24:50;;;;;;;;;;;;;;;9.81;22.08;98071.06;5019925;28;19921;-66
2021/12/29 18:27:16;;;;;;;;;;;;;;;9.69;22.86;98063.84;5002078;28;20295;-65
2021/12/29 18:29:41;;;;;;;;;;;;;;;9.78;21.55;98080.63;5018566;28;19921;-66
2021/12/29 18:32:07;;;;;;;;;;;;;;;9.99;20.57;98086.56;5016868;28;19917;-65
2021/12/29 18:34:32;;;;;;;;;;;;;;;10.18;20.79;98086.59;5003036;28;19964;-66
2021/12/29 18:36:58;;;;;;;;;;;;;;;9.84;24.59;98085.50;5014198;28;20377;-66
2021/12/29 18:39:23;;;;;;;;;;;;;;;10.13;23.33;98098.84;5017829;28;19917;-66
2021/12/29 18:41:51;;;;;;;;;;;;;;;10.14;24.04;98098.75;5018949;28;19928;-66
2021/12/29 18:44:17;;;;;;;;;;;;;;;10.04;25.61;98102.66;5014532;28;19917;-65
2021/12/29 18:46:43;;;;;;;;;;;;;;;9.90;26.79;98108.41;5014311;28;20531;-65
2021/12/29 18:49:08;;;;;;;;;;;;;;;10.18;24.38;98113.16;5017876;28;19956;-65
2021/12/29 18:51:34;;;;;;;;;;;;;;;9.96;26.80;98105.53;5018001;28;19917;-65
2021/12/29 18:54:01;;;;;;;;;;;;;;;10.08;25.89;98100.75;5015763;28;20006;-65
2021/12/29 18:56:28;;;;;;;;;;;;;;;10.16;26.62;98084.06;5009838;28;20305;-64
2021/12/29 18:58:53;;;;;;;;;;;;;;;9.84;26.07;98085.50;5032440;28;19913;-64
2021/12/29 19:01:54;;;;;;;;;;;;;;;10.01;22.37;98097.63;5027314;28;19913;-65
2021/12/29 19:04:34;;;;;;;;;;;;;;;9.97;23.27;98089.22;5025735;28;19917;-65
2021/12/29 19:13:06;;;;;;;;;;;;;;;10.17;19.78;98113.19;5031818;28;20424;-65
2021/12/29 19:18:58;;;;;;;;;;;;;;;10.08;22.52;98098.19;5027067;28;19919;-65
2021/12/29 19:21:23;;;;;;;;;;;;;;;10.20;20.31;98101.06;5017739;28;19917;-65
2021/12/29 19:23:49;;;;;;;;;;;;;;;10.24;20.62;98109.44;5003273;28;19928;-66
2021/12/29 19:26:14;;;;;;;;;;;;;;;10.08;21.92;98098.19;5016914;28;20015;-66
2021/12/29 19:28:40;;;;;;;;;;;;;;;10.23;20.33;98097.50;5017233;28;19948;-65
2021/12/29 19:31:05;;;;;;;;;;;;;;;10.03;19.02;98101.81;5020856;28;19917;-66
2021/12/29 19:33:31;;;;;;;;;;;;;;;10.17;15.70;98116.63;5020650;28;19996;-66
2021/12/29 19:35:56;;;;;;;;;;;;;;;10.31;17.08;98116.03;5021306;28;19932;-66
2021/12/29 19:38:22;;;;;;;;;;;;;;;10.31;17.70;98120.34;5019654;28;19921;-66
2021/12/29 19:40:49;;;;;;;;;;;;;;;10.49;17.58;98118.66;5018637;28;19920;-66
2021/12/29 19:43:15;;;;;;;;;;;;;;;10.53;17.10;98121.03;5018614;28;19968;-66
2021/12/29 19:45:40;;;;;;;;;;;;;;;10.15;17.09;98126.16;5015755;28;19921;-65
2021/12/29 19:48:06;;;;;;;;;;;;;;;10.55;12.78;98120.97;5017355;28;19948;-65
2021/12/29 19:50:35;;;;;;;;;;;;;;;10.22;10.85;98126.72;5020979;28;20024;-66
2021/12/29 19:53:03;;;;;;;;;;;;;;;10.39;6.93;98139.69;5019103;28;19928;-66
2021/12/29 19:55:30;;;;;;;;;;;;;;;10.36;0.67;98146.72;5019257;28;19954;-66
2021/12/29 19:57:56;;;;;;;;;;;;;;;10.56;0.00;98156.09;5019296;28;20605;-66
2021/12/29 20:00:22;;;;;;;;;;;;;;;10.52;0.00;98177.75;5019450;28;19920;-65
2021/12/29 20:02:51;;;;;;;;;;;;;;;10.43;0.00;98182.41;5018416;28;20775;-65
2021/12/29 20:05:17;;;;;;;;;;;;;;;10.52;0.00;98201.75;5010618;28;19917;-65
2021/12/29 20:07:44;;;;;;;;;;;;;;;10.48;0.00;98212.25;5006540;28;19921;-66
2021/12/29 20:10:10;;;;;;;;;;;;;;;10.59;0.00;98218.59;5020509;28;20086;-65
2021/12/29 20:12:39;;;;;;;;;;;;;;;10.74;0.00;98241.97;5022758;28;19920;-66
2021/12/29 20:15:17;;;;;;;;;;;;;;;10.80;0.00;98242.53;5018349;28;19921;-66
2021/12/29 20:17:50;;;;;;;;;;;;;;;11.00;0.00;98243.41;5000633;28;20431;-66
2021/12/29 20:20:40;;;;;;;;;;;;;;;10.50;0.00;98236.19;5013938;28;20378;-67
2021/12/29 20:23:26;;;;;;;;;;;;;;;10.87;0.00;98238.78;4918234;29;19958;-67
2021/12/29 20:29:02;;;;;;;;;;;;;;;10.92;0.00;98263.50;4916949;29;19946;-66
2021/12/29 20:31:38;;;;;;;;;;;;;;;10.83;0.00;98283.63;4921655;29;20005;-68
2021/12/29 20:34:06;;;;;;;;;;;;;;;10.99;0.00;98299.25;4918060;29;20037;-68
2021/12/29 20:36:43;;;;;;;;;;;;;;;10.87;0.00;98289.47;4919959;29;19926;-68
2021/12/29 20:42:16;;;;;;;;;;;;;;;10.84;0.00;98305.91;4920885;29;19925;-68
2021/12/29 20:45:04;;;;;;;;;;;;;;;10.97;0.00;98310.50;4921737;29;19926;-68
2021/12/29 20:50:36;;;;;;;;;;;;;;;11.01;0.00;98320.59;4922022;29;19978;-68
2021/12/29 20:53:07;;;;;;;;;;;;;;;10.91;0.00;98332.22;4922771;29;19935;-68
2021/12/29 20:55:34;;;;;;;;;;;;;;;10.95;0.00;98345.78;4921325;29;20013;-68
2021/12/29 20:58:03;;;;;;;;;;;;;;;11.08;0.00;98352.94;4921473;29;19923;-68
2021/12/29 21:00:28;;;;;;;;;;;;;;;11.01;0.00;98353.25;4975986;28;19917;-68
2021/12/29 21:02:57;;;;;;;;;;;;;;;10.97;0.00;98351.72;5002474;28;19917;-68
2021/12/29 21:05:52;;;;;;;;;;;;;;;10.86;0.00;98365.91;5002420;28;19921;-68
2021/12/29 21:11:33;;;;;;;;;;;;;;;11.01;0.00;98397.06;4999025;28;19979;-68
2021/12/29 21:14:20;;;;;;;;;;;;;;;10.95;0.00;98397.31;5016293;28;19932;-65
2021/12/29 21:16:45;;;;;;;;;;;;;;;11.03;0.00;98418.44;5016287;28;20401;-68
2021/12/29 21:19:25;;;;;;;;;;;;;;;10.96;0.00;98433.34;5015048;28;19918;-68
2021/12/29 21:22:21;;;;;;;;;;;;;;;11.02;0.00;98452.88;4969068;28;19917;-68
2021/12/29 21:25:18;;;;;;;;;;;;;;;11.08;0.00;98458.59;4977840;28;20283;-68
2021/12/29 21:34:19;;;;;;;;;;;;;;;;;;;;;
2021/12/29 21:36:56;;;;;;;;;;;;;;;11.20;0.00;98506.19;4961480;28;19922;-68
2021/12/29 21:39:24;;;;;;;;;;;;;;;11.10;0.00;98510.88;4955144;28;19922;-68
2021/12/29 21:41:49;;;;;;;;;;;;;;;11.28;0.00;98523.91;4943422;28;19928;-68
2021/12/29 21:47:43;;;;;;;;;;;;;;;11.36;0.00;98541.59;4960733;28;20668;-68
2021/12/29 21:50:32;;;;;;;;;;;;;;;11.41;0.00;98547.44;4946294;28;19930;-68
2021/12/29 21:52:58;;;;;;;;;;;;;;;11.33;0.00;98564.94;4944975;28;20573;-68
2021/12/29 21:55:23;;;;;;;;;;;;;;;11.40;0.00;98556.06;4939842;28;19993;-68
2021/12/29 21:57:52;;;;;;;;;;;;;;;11.47;0.00;98552.31;4939197;28;19919;-68
2021/12/29 22:03:24;;;;;;;;;;;;;;;11.49;0.00;98550.50;4935806;28;19977;-68
2021/12/29 22:05:50;;;;;;;;;;;;;;;11.37;0.00;98556.19;4940003;29;20823;-68
2021/12/29 22:08:15;;;;;;;;;;;;;;;11.46;0.00;98553.22;4968101;28;19918;-68
2021/12/29 22:10:43;;;;;;;;;;;;;;;11.50;0.00;98547.88;4979189;28;20438;-66
2021/12/29 22:13:09;;;;;;;;;;;;;;;11.57;0.00;98543.28;4983365;28;19922;-66
2021/12/29 22:15:34;;;;;;;;;;;;;;;11.54;0.00;98548.59;4981976;28;20322;-66
2021/12/29 22:18:00;;;;;;;;;;;;;;;11.72;0.00;98537.47;4983022;28;20012;-66
2021/12/29 22:20:26;;;;;;;;;;;;;;;11.63;0.00;98532.72;4978858;28;19966;-66
2021/12/29 22:22:52;;;;;;;;;;;;;;;11.65;0.00;98535.19;4981749;28;19914;-66
2021/12/29 22:25:18;;;;;;;;;;;;;;;11.65;0.00;98535.19;4981723;28;19930;-66
2021/12/29 22:27:43;;;;;;;;;;;;;;;11.63;0.00;98529.25;4981617;28;20041;-66
2021/12/29 22:30:11;;;;;;;;;;;;;;;11.55;0.00;98534.78;4980508;28;20015;-66
2021/12/29 22:32:37;;;;;;;;;;;;;;;11.60;0.00;98527.66;4980407;28;20742;-66
2021/12/29 22:35:03;;;;;;;;;;;;;;;11.60;0.00;98526.84;4981737;28;19910;-66
2021/12/29 22:37:28;;;;;;;;;;;;;;;11.79;0.00;98522.56;4980090;28;19929;-68
2021/12/29 22:39:54;;;;;;;;;;;;;;;11.58;0.00;98529.47;4975211;28;19925;-68
2021/12/29 22:42:19;;;;;;;;;;;;;;;11.73;0.00;98528.81;4981252;28;19917;-68
2021/12/29 22:44:44;;;;;;;;;;;;;;;11.65;0.00;98541.19;4985259;28;19917;-67
2021/12/29 22:47:10;;;;;;;;;;;;;;;11.62;0.00;98536.19;4992831;28;19917;-68
2021/12/29 22:49:37;;;;;;;;;;;;;;;11.66;0.00;98527.41;5006154;28;20922;-66
2021/12/29 22:52:03;;;;;;;;;;;;;;;11.57;0.00;98532.97;5018112;28;19917;-69
2021/12/29 22:54:29;;;;;;;;;;;;;;;11.64;0.00;98539.53;5019838;28;19921;-69
2021/12/29 22:56:54;;;;;;;;;;;;;;;11.65;0.00;98530.88;4999090;28;19936;-68
2021/12/29 22:59:22;;;;;;;;;;;;;;;11.69;0.00;98545.31;5017231;28;19964;-68
2021/12/29 23:01:47;;;;;;;;;;;;;;;11.66;0.00;98553.19;5004228;28;19987;-68
2021/12/29 23:04:12;;;;;;;;;;;;;;;11.72;0.00;98542.63;5001876;28;19917;-68
2021/12/29 23:06:38;;;;;;;;;;;;;;;11.65;0.00;98542.94;5001863;28;20386;-68
2021/12/29 23:09:03;;;;;;;;;;;;;;;11.72;0.00;98540.03;4998788;28;19949;-68
2021/12/29 23:11:30;;;;;;;;;;;;;;;11.66;0.00;98544.63;5001373;28;19967;-68
2021/12/29 23:14:01;;;;;;;;;;;;;;;11.69;0.00;98541.91;5003252;28;19921;-68
2021/12/29 23:16:27;;;;;;;;;;;;;;;11.58;0.00;98549.28;5015030;28;20286;-68
2021/12/29 23:18:53;;;;;;;;;;;;;;;11.60;0.00;98553.44;5018229;28;19921;-68
2021/12/29 23:21:18;;;;;;;;;;;;;;;11.58;0.00;98564.75;5016388;28;19936;-68
2021/12/29 23:23:55;;;;;;;;;;;;;;;11.49;0.00;98571.13;5017199;28;19945;-67
2021/12/29 23:26:33;;;;;;;;;;;;;;;11.46;0.00;98566.94;5005567;28;20630;-68
2021/12/29 23:29:01;;;;;;;;;;;;;;;11.51;0.00;98571.91;5015448;28;19921;-68
2021/12/29 23:31:27;;;;;;;;;;;;;;;11.48;0.00;98574.63;5015988;28;20880;-68
2021/12/29 23:33:53;;;;;;;;;;;;;;;11.62;0.00;98572.28;5003452;28;20444;-68
2021/12/29 23:36:20;;;;;;;;;;;;;;;11.54;0.00;98582.09;5015711;28;19925;-68
2021/12/29 23:38:46;;;;;;;;;;;;;;;11.73;0.00;98585.56;5015630;28;19921;-68
2021/12/29 23:41:11;;;;;;;;;;;;;;;11.61;0.00;98596.41;5016974;28;20007;-68
2021/12/29 23:43:37;;;;;;;;;;;;;;;11.71;0.00;98597.69;4998589;28;20361;-68
2021/12/29 23:46:03;;;;;;;;;;;;;;;11.60;0.00;98602.47;5016717;28;19970;-68
2021/12/29 23:48:29;;;;;;;;;;;;;;;11.51;0.00;98611.41;5014108;28;20012;-68
2021/12/29 23:50:55;;;;;;;;;;;;;;;11.51;0.00;98615.75;5014359;28;20031;-68
2021/12/29 23:53:21;;;;;;;;;;;;;;;11.45;0.00;98621.19;5014865;28;19921;-68
2021/12/29 23:55:48;;;;;;;;;;;;;;;11.58;0.00;98622.31;5002656;28;19920;-68
2021/12/29 23:58:14;;;;;;;;;;;;;;;11.60;0.00;98625.66;5014220;28;19971;-68
